createdAt,value
2023-07-06T00:00:17.674Z,1016.391843
2023-07-06T00:05:17.715Z,1016.494825
2023-07-06T00:10:17.297Z,1016.538329
2023-07-06T00:15:17.356Z,1016.568570
2023-07-06T00:20:17.318Z,1016.523267
2023-07-06T00:25:17.325Z,1016.538138
2023-07-06T00:30:17.351Z,1016.567498
2023-07-06T00:35:17.388Z,1016.571630
2023-07-06T00:40:17.624Z,1016.527838
2023-07-06T00:45:17.507Z,1016.524169
2023-07-06T00:50:17.500Z,1016.602243
2023-07-06T00:55:17.322Z,1016.670664
2023-07-06T01:00:17.602Z,1016.704421
2023-07-06T01:05:17.292Z,1016.733732
2023-07-06T01:10:17.450Z,1016.813051
2023-07-06T01:15:17.428Z,1016.853022
2023-07-06T01:20:17.413Z,1016.903295
2023-07-06T01:25:17.310Z,1016.947478
2023-07-06T01:30:17.625Z,1016.953044
2023-07-06T01:35:17.499Z,1017.027923
2023-07-06T01:40:17.732Z,1017.078644
2023-07-06T01:45:17.602Z,1017.121911
2023-07-06T01:50:17.682Z,1017.120747
2023-07-06T01:55:18.061Z,1017.122919
2023-07-06T02:00:17.505Z,1017.163074
2023-07-06T02:05:17.552Z,1017.147677
2023-07-06T02:10:17.343Z,1017.196659
2023-07-06T02:15:17.459Z,1017.215903
2023-07-06T02:20:17.452Z,1017.247201
2023-07-06T02:25:17.277Z,1017.259081
2023-07-06T02:30:17.421Z,1017.280592
2023-07-06T02:35:17.231Z,1017.291966
2023-07-06T02:40:17.315Z,1017.320931
2023-07-06T02:45:17.676Z,1017.300027
2023-07-06T02:50:17.173Z,1017.276716
2023-07-06T02:55:17.336Z,1017.226554
2023-07-06T03:00:17.395Z,1017.272987
2023-07-06T03:05:17.398Z,1017.287639
2023-07-06T03:10:17.998Z,1017.336832
2023-07-06T03:15:17.807Z,1017.436649
2023-07-06T03:20:17.656Z,1017.522581
2023-07-06T03:25:17.352Z,1017.511174
2023-07-06T03:30:17.361Z,1017.454631
2023-07-06T03:35:17.559Z,1017.441237
2023-07-06T03:40:17.197Z,1017.496221
2023-07-06T03:45:17.284Z,1017.590240
2023-07-06T03:50:17.326Z,1017.604460
2023-07-06T03:55:17.204Z,1017.588796
2023-07-06T04:00:17.596Z,1017.650160
2023-07-06T04:05:17.305Z,1017.676143
2023-07-06T04:10:17.651Z,1017.798988
2023-07-06T04:15:17.335Z,1017.868394
2023-07-06T04:20:17.363Z,1017.866652
2023-07-06T04:25:17.561Z,1017.851702
2023-07-06T04:30:17.812Z,1017.788394
2023-07-06T04:35:17.422Z,1017.813915
2023-07-06T04:40:17.490Z,1017.767431
2023-07-06T04:45:17.256Z,1017.773070
2023-07-06T04:50:17.292Z,1017.728362
2023-07-06T04:55:17.611Z,1017.711238
2023-07-06T05:00:17.359Z,1017.684678
2023-07-06T05:05:17.441Z,1017.713675
2023-07-06T05:10:17.578Z,1017.727286
2023-07-06T05:15:17.316Z,1017.695586
2023-07-06T05:20:17.413Z,1017.716316
2023-07-06T05:25:17.300Z,1017.701763
2023-07-06T05:30:20.015Z,1017.750504
2023-07-06T05:35:17.517Z,1017.750419
2023-07-06T05:40:17.238Z,1017.783660
2023-07-06T05:45:17.457Z,1017.785479
2023-07-06T05:50:17.163Z,1017.792177
2023-07-06T05:55:17.233Z,1017.791301
2023-07-06T06:00:17.282Z,1017.827203
2023-07-06T06:05:17.287Z,1017.877186
2023-07-06T06:10:17.511Z,1017.871987
2023-07-06T06:15:17.144Z,1017.895685
2023-07-06T06:20:17.544Z,1017.865324
2023-07-06T06:25:17.328Z,1017.847242
2023-07-06T06:30:17.545Z,1017.905188
2023-07-06T06:35:17.538Z,1017.939474
2023-07-06T06:40:17.339Z,1017.972710
2023-07-06T06:45:17.370Z,1018.002924
2023-07-06T06:50:17.459Z,1018.024878
2023-07-06T06:55:17.689Z,1018.035445
2023-07-06T07:00:17.380Z,1017.991495
2023-07-06T07:05:17.658Z,1018.042642
2023-07-06T07:10:17.304Z,1018.024506
2023-07-06T07:15:18.128Z,1017.981637
2023-07-06T07:20:17.184Z,1017.990672
2023-07-06T07:25:17.397Z,1017.918991
2023-07-06T07:30:17.423Z,1017.908295
2023-07-06T07:35:17.077Z,1017.926414
2023-07-06T07:40:17.614Z,1017.898561
2023-07-06T07:45:17.432Z,1017.882394
2023-07-06T07:50:17.073Z,1017.854095
2023-07-06T07:55:18.104Z,1017.850518
2023-07-06T08:00:17.259Z,1017.879495
2023-07-06T08:05:17.294Z,1017.933830
2023-07-06T08:10:17.197Z,1017.959064
2023-07-06T08:15:17.205Z,1017.949504
2023-07-06T08:20:55.317Z,1017.914501
2023-07-06T08:21:37.899Z,1017.914501
2023-07-06T08:25:17.316Z,1018.001369
2023-07-06T08:30:17.305Z,1017.990390
2023-07-06T08:35:17.371Z,1017.990061
2023-07-06T08:40:17.152Z,1017.943036
2023-07-06T08:45:17.273Z,1017.945393
2023-07-06T08:50:17.207Z,1017.917038
2023-07-06T08:55:17.232Z,1017.953782
2023-07-06T09:00:17.290Z,1017.919084
2023-07-06T09:05:17.330Z,1017.891596
2023-07-06T09:10:24.839Z,1017.915232
2023-07-06T09:15:17.447Z,1017.875904
2023-07-06T09:20:17.422Z,1017.851237
2023-07-06T09:25:17.090Z,1017.795542
2023-07-06T09:30:17.566Z,1017.824035
2023-07-06T09:35:17.637Z,1017.902064
2023-07-06T09:40:17.843Z,1017.954646
2023-07-06T09:45:17.875Z,1017.926376
2023-07-06T09:50:17.399Z,1017.939376
2023-07-06T09:55:17.194Z,1017.958610
2023-07-06T10:00:17.205Z,1017.932278
2023-07-06T10:05:17.333Z,1017.893150
2023-07-06T10:10:17.378Z,1017.889597
2023-07-06T10:15:17.557Z,1017.842435
2023-07-06T10:20:17.329Z,1017.845277
2023-07-06T10:25:17.047Z,1017.834095
2023-07-06T10:30:17.332Z,1017.837764
2023-07-06T10:35:17.022Z,1017.884186
2023-07-06T10:40:17.216Z,1017.869722
2023-07-06T10:45:17.321Z,1017.923500
2023-07-06T10:50:17.140Z,1017.827394
2023-07-06T10:55:17.600Z,1017.807446
2023-07-06T11:00:17.683Z,1017.769679
2023-07-06T11:05:17.676Z,1017.899804
2023-07-06T11:10:17.154Z,1017.999288
2023-07-06T11:15:17.461Z,1018.027239
2023-07-06T11:20:17.182Z,1017.898261
2023-07-06T11:25:17.215Z,1017.773360
2023-07-06T11:30:17.233Z,1017.785545
2023-07-06T11:35:17.163Z,1017.818763
2023-07-06T11:40:17.172Z,1017.784633
2023-07-06T11:45:17.888Z,1017.877641
2023-07-06T11:50:17.164Z,1017.892627
2023-07-06T11:55:17.219Z,1017.769662
2023-07-06T12:00:17.272Z,1017.812290
2023-07-06T12:05:17.470Z,1017.841823
2023-07-06T12:10:17.251Z,1017.793643
2023-07-06T12:15:17.542Z,1017.792225
2023-07-06T12:20:17.311Z,1017.669034
2023-07-06T12:25:17.224Z,1017.703330
2023-07-06T12:30:17.786Z,1017.700888
2023-07-06T12:35:17.076Z,1017.763547
2023-07-06T12:40:17.191Z,1017.714252
2023-07-06T12:45:17.398Z,1017.610314
2023-07-06T12:50:17.121Z,1017.629013
2023-07-06T12:55:17.733Z,1017.577614
2023-07-06T13:00:17.147Z,1017.595245
2023-07-06T13:05:17.275Z,1017.652573
2023-07-06T13:10:17.300Z,1017.690823
2023-07-06T13:15:17.116Z,1017.706762
2023-07-06T13:20:17.145Z,1017.656960
2023-07-06T13:25:17.135Z,1017.654501
2023-07-06T13:30:17.148Z,1017.638385
2023-07-06T13:35:18.297Z,1017.585721
2023-07-06T13:40:17.109Z,1017.594343
2023-07-06T13:45:17.691Z,1017.652037
2023-07-06T13:50:17.199Z,1017.715736
2023-07-06T13:55:17.078Z,1017.735866
2023-07-06T14:00:17.978Z,1017.661247
2023-07-06T14:05:17.120Z,1017.610143
2023-07-06T14:10:17.079Z,1017.575476
2023-07-06T14:15:17.248Z,1017.545855
2023-07-06T14:20:17.280Z,1017.586545
2023-07-06T14:25:17.759Z,1017.489833
2023-07-06T14:30:17.134Z,1017.403703
2023-07-06T14:35:17.700Z,1017.381843
2023-07-06T14:40:17.090Z,1017.356267
2023-07-06T14:45:17.191Z,1017.305135
2023-07-06T14:50:17.107Z,1017.352635
2023-07-06T14:55:17.055Z,1017.424084
2023-07-06T15:00:17.174Z,1017.392349
2023-07-06T15:05:17.505Z,1017.367682
2023-07-06T15:10:17.056Z,1017.290341
2023-07-06T15:15:17.206Z,1017.280526
2023-07-06T15:20:17.320Z,1017.240218
2023-07-06T15:25:17.172Z,1017.181096
2023-07-06T15:30:17.583Z,1017.180478
2023-07-06T15:35:17.308Z,1017.174533
2023-07-06T15:40:17.147Z,1017.131607
2023-07-06T15:45:17.426Z,1017.103902
2023-07-06T15:50:16.964Z,1017.063485
2023-07-06T15:55:17.278Z,1017.062946
2023-07-06T16:00:17.102Z,1017.103692
2023-07-06T16:05:17.065Z,1017.147540
2023-07-06T16:10:17.217Z,1017.200979
2023-07-06T16:15:17.285Z,1017.200830
2023-07-06T16:20:18.692Z,1017.142337
2023-07-06T16:25:17.014Z,1017.106725
2023-07-06T16:30:17.071Z,1017.067304
2023-07-06T16:35:17.141Z,1017.133118
2023-07-06T16:40:17.749Z,1017.123886
2023-07-06T16:45:17.053Z,1017.117311
2023-07-06T16:50:17.103Z,1017.133938
2023-07-06T16:55:17.037Z,1017.093045
2023-07-06T17:00:17.128Z,1017.134619
2023-07-06T17:05:17.616Z,1017.181284
2023-07-06T17:10:17.005Z,1017.225633
2023-07-06T17:15:19.677Z,1017.254982
2023-07-06T17:20:17.179Z,1017.231984
2023-07-06T17:25:17.282Z,1017.290105
2023-07-06T17:30:17.220Z,1017.347050
2023-07-06T17:35:17.161Z,1017.381905
2023-07-06T17:40:17.254Z,1017.414032
2023-07-06T17:45:17.058Z,1017.379644
2023-07-06T17:50:17.371Z,1017.388768
2023-07-06T17:55:17.610Z,1017.494982
2023-07-06T18:00:17.247Z,1017.595327
2023-07-06T18:05:17.364Z,1017.618310
2023-07-06T18:10:17.023Z,1017.676821
2023-07-06T18:15:17.161Z,1017.718035
2023-07-06T18:20:17.022Z,1017.800175
2023-07-06T18:25:17.430Z,1017.886420
2023-07-06T18:30:17.621Z,1018.000357
2023-07-06T18:35:17.068Z,1018.070625
2023-07-06T18:40:16.986Z,1018.134041
2023-07-06T18:45:22.803Z,1018.196680
2023-07-06T18:50:17.359Z,1018.296141
2023-07-06T18:55:17.140Z,1018.371394
2023-07-06T19:00:17.059Z,1018.497067
2023-07-06T19:05:17.061Z,1018.566638
2023-07-06T19:10:17.300Z,1018.694571
2023-07-06T19:15:17.144Z,1018.768619
2023-07-06T19:20:17.033Z,1018.907450
2023-07-06T19:25:17.704Z,1019.024268
2023-07-06T19:30:17.715Z,1019.222150
2023-07-06T19:35:17.100Z,1019.357459
2023-07-06T19:40:16.892Z,1019.488811
2023-07-06T19:45:17.068Z,1019.551371
2023-07-06T19:50:17.190Z,1019.634049
2023-07-06T19:55:17.118Z,1019.704042
2023-07-06T20:00:17.137Z,1019.786765
2023-07-06T20:05:17.044Z,1019.863920
2023-07-06T20:10:16.986Z,1019.908628
2023-07-06T20:15:17.049Z,1019.911167
2023-07-06T20:20:17.047Z,1019.932235
2023-07-06T20:25:17.030Z,1020.015537
2023-07-06T20:30:17.051Z,1020.065861
2023-07-06T20:35:17.007Z,1020.167015
2023-07-06T20:40:17.048Z,1020.197230
2023-07-06T20:45:17.213Z,1020.283292
2023-07-06T20:50:17.022Z,1020.340165
2023-07-06T20:55:16.988Z,1020.397752
2023-07-06T21:00:17.264Z,1020.471873
2023-07-06T21:05:17.457Z,1020.514060
2023-07-06T21:10:16.955Z,1020.598087
2023-07-06T21:15:17.316Z,1020.618178
2023-07-06T21:20:17.488Z,1020.639551
2023-07-06T21:25:17.092Z,1020.693844
2023-07-06T21:30:16.978Z,1020.731373
2023-07-06T21:35:17.154Z,1020.834631
2023-07-06T21:40:17.071Z,1020.856250
2023-07-06T21:45:16.921Z,1020.902626
2023-07-06T21:50:17.413Z,1020.992441
2023-07-06T21:55:17.077Z,1021.078822
2023-07-06T22:00:17.796Z,1021.147577
2023-07-06T22:05:17.919Z,1021.228925
2023-07-06T22:10:17.045Z,1021.286648
2023-07-06T22:15:29.524Z,1021.324420
2023-07-06T22:20:16.981Z,1021.362852
2023-07-06T22:25:16.938Z,1021.397991
2023-07-06T22:30:17.197Z,1021.393379
2023-07-06T22:35:16.921Z,1021.384649
2023-07-06T22:40:17.201Z,1021.404530
2023-07-06T22:45:17.080Z,1021.420405
2023-07-06T22:50:17.026Z,1021.426990
2023-07-06T22:55:16.990Z,1021.405843
2023-07-06T23:00:17.215Z,1021.435376
2023-07-06T23:05:16.892Z,1021.452385
2023-07-06T23:10:16.901Z,1021.484181
2023-07-06T23:15:17.010Z,1021.493219
2023-07-06T23:20:16.986Z,1021.519621
2023-07-06T23:25:16.874Z,1021.479068
2023-07-06T23:30:16.882Z,1021.537430
2023-07-06T23:35:17.016Z,1021.533788
2023-07-06T23:40:16.953Z,1021.574014
2023-07-06T23:45:17.216Z,1021.547098
2023-07-06T23:50:16.916Z,1021.559640
2023-07-06T23:55:17.029Z,1021.639005
